sensor_id;sensor_type;location;lat;lon;timestamp;temperature;humidity
76040;SHT30;64736;50.462;4.850;2023-03-21T00:00:31;9.39;76.25
76040;SHT30;64736;50.462;4.850;2023-03-21T00:02:56;9.37;76.40
76040;SHT30;64736;50.462;4.850;2023-03-21T00:05:22;9.35;76.19
76040;SHT30;64736;50.462;4.850;2023-03-21T00:07:48;9.30;76.43
76040;SHT30;64736;50.462;4.850;2023-03-21T00:10:13;9.36;76.47
76040;SHT30;64736;50.462;4.850;2023-03-21T00:12:39;9.37;76.26
76040;SHT30;64736;50.462;4.850;2023-03-21T00:15:09;9.91;74.23
76040;SHT30;64736;50.462;4.850;2023-03-21T00:17:36;10.14;71.98
76040;SHT30;64736;50.462;4.850;2023-03-21T00:20:05;10.26;71.64
76040;SHT30;64736;50.462;4.850;2023-03-21T00:22:35;10.16;71.77
76040;SHT30;64736;50.462;4.850;2023-03-21T00:25:01;10.28;71.45
76040;SHT30;64736;50.462;4.850;2023-03-21T00:27:27;10.35;70.96
76040;SHT30;64736;50.462;4.850;2023-03-21T00:29:53;10.33;71.27
76040;SHT30;64736;50.462;4.850;2023-03-21T00:32:20;10.36;71.07
76040;SHT30;64736;50.462;4.850;2023-03-21T00:34:46;10.31;71.17
76040;SHT30;64736;50.462;4.850;2023-03-21T00:37:12;10.38;71.09
76040;SHT30;64736;50.462;4.850;2023-03-21T00:39:42;10.35;71.35
76040;SHT30;64736;50.462;4.850;2023-03-21T00:42:09;10.33;71.47
76040;SHT30;64736;50.462;4.850;2023-03-21T00:44:34;10.32;72.01
76040;SHT30;64736;50.462;4.850;2023-03-21T00:47:02;10.28;72.27
76040;SHT30;64736;50.462;4.850;2023-03-21T00:49:29;10.38;71.41
76040;SHT30;64736;50.462;4.850;2023-03-21T00:51:59;10.22;71.77
76040;SHT30;64736;50.462;4.850;2023-03-21T00:54:25;10.31;71.49
76040;SHT30;64736;50.462;4.850;2023-03-21T00:56:51;10.33;71.54
76040;SHT30;64736;50.462;4.850;2023-03-21T00:59:17;10.25;71.65
76040;SHT30;64736;50.462;4.850;2023-03-21T01:01:42;10.25;71.83
76040;SHT30;64736;50.462;4.850;2023-03-21T01:04:11;10.14;72.14
76040;SHT30;64736;50.462;4.850;2023-03-21T01:06:42;10.29;71.56
76040;SHT30;64736;50.462;4.850;2023-03-21T01:09:20;10.29;71.44
76040;SHT30;64736;50.462;4.850;2023-03-21T01:11:47;10.32;71.74
76040;SHT30;64736;50.462;4.850;2023-03-21T01:14:14;10.21;71.98
76040;SHT30;64736;50.462;4.850;2023-03-21T01:16:41;10.19;72.00
76040;SHT30;64736;50.462;4.850;2023-03-21T01:19:09;10.14;72.51
76040;SHT30;64736;50.462;4.850;2023-03-21T01:21:36;10.22;72.21
76040;SHT30;64736;50.462;4.850;2023-03-21T01:24:02;10.26;72.00
76040;SHT30;64736;50.462;4.850;2023-03-21T01:26:27;10.32;72.11
76040;SHT30;64736;50.462;4.850;2023-03-21T01:28:53;10.12;72.38
76040;SHT30;64736;50.462;4.850;2023-03-21T01:31:19;10.26;72.42
76040;SHT30;64736;50.462;4.850;2023-03-21T01:33:46;10.19;72.60
76040;SHT30;64736;50.462;4.850;2023-03-21T01:36:15;10.28;72.13
76040;SHT30;64736;50.462;4.850;2023-03-21T01:38:42;10.32;71.95
76040;SHT30;64736;50.462;4.850;2023-03-21T01:41:37;10.32;71.77
76040;SHT30;64736;50.462;4.850;2023-03-21T01:44:01;10.25;72.27
76040;SHT30;64736;50.462;4.850;2023-03-21T01:46:41;10.33;72.38
76040;SHT30;64736;50.462;4.850;2023-03-21T01:51:44;10.29;72.00
76040;SHT30;64736;50.462;4.850;2023-03-21T01:54:23;10.36;71.95
76040;SHT30;64736;50.462;4.850;2023-03-21T01:56:53;10.28;72.19
76040;SHT30;64736;50.462;4.850;2023-03-21T02:02:28;10.22;72.65
76040;SHT30;64736;50.462;4.850;2023-03-21T02:04:56;10.32;72.00
76040;SHT30;64736;50.462;4.850;2023-03-21T02:07:29;10.32;71.95
76040;SHT30;64736;50.462;4.850;2023-03-21T02:09:57;10.33;72.10
76040;SHT30;64736;50.462;4.850;2023-03-21T02:12:25;10.33;72.04
76040;SHT30;64736;50.462;4.850;2023-03-21T02:14:52;10.28;72.47
76040;SHT30;64736;50.462;4.850;2023-03-21T02:18:21;10.22;72.36
76040;SHT30;64736;50.462;4.850;2023-03-21T02:34:22;10.38;72.28
76040;SHT30;64736;50.462;4.850;2023-03-21T02:37:21;9.99;73.55
76040;SHT30;64736;50.462;4.850;2023-03-21T02:45:08;10.36;72.49
76040;SHT30;64736;50.462;4.850;2023-03-21T02:52:38;9.98;74.20
76040;SHT30;64736;50.462;4.850;2023-03-21T02:55:16;10.14;74.00
76040;SHT30;64736;50.462;4.850;2023-03-21T02:57:46;10.09;74.62
76040;SHT30;64736;50.462;4.850;2023-03-21T03:00:17;10.19;74.83
76040;SHT30;64736;50.462;4.850;2023-03-21T03:02:44;9.94;75.89
76040;SHT30;64736;50.462;4.850;2023-03-21T03:05:32;10.41;73.90
76040;SHT30;64736;50.462;4.850;2023-03-21T03:08:05;9.83;75.88
76040;SHT30;64736;50.462;4.850;2023-03-21T03:16:37;9.64;77.63
76040;SHT30;64736;50.462;4.850;2023-03-21T03:19:00;9.77;76.52
76040;SHT30;64736;50.462;4.850;2023-03-21T03:24:23;10.18;75.03
76040;SHT30;64736;50.462;4.850;2023-03-21T03:27:02;10.39;73.28
76040;SHT30;64736;50.462;4.850;2023-03-21T03:29:31;10.45;73.35
76040;SHT30;64736;50.462;4.850;2023-03-21T03:32:08;10.38;73.28
76040;SHT30;64736;50.462;4.850;2023-03-21T03:34:43;10.35;75.19
76040;SHT30;64736;50.462;4.850;2023-03-21T03:37:13;10.15;78.79
76040;SHT30;64736;50.462;4.850;2023-03-21T03:42:35;9.93;79.85
76040;SHT30;64736;50.462;4.850;2023-03-21T03:45:03;9.87;79.64
76040;SHT30;64736;50.462;4.850;2023-03-21T03:50:13;9.93;79.09
76040;SHT30;64736;50.462;4.850;2023-03-21T03:53:01;9.85;79.25
76040;SHT30;64736;50.462;4.850;2023-03-21T03:55:32;9.87;80.25
76040;SHT30;64736;50.462;4.850;2023-03-21T03:58:00;9.87;80.89
76040;SHT30;64736;50.462;4.850;2023-03-21T04:00:32;9.84;79.82
76040;SHT30;64736;50.462;4.850;2023-03-21T04:03:00;9.90;78.94
76040;SHT30;64736;50.462;4.850;2023-03-21T04:05:26;9.93;78.95
76040;SHT30;64736;50.462;4.850;2023-03-21T04:07:52;9.91;79.05
76040;SHT30;64736;50.462;4.850;2023-03-21T04:10:19;9.93;79.38
76040;SHT30;64736;50.462;4.850;2023-03-21T04:12:47;9.85;79.23
76040;SHT30;64736;50.462;4.850;2023-03-21T04:15:12;9.90;79.53
76040;SHT30;64736;50.462;4.850;2023-03-21T04:17:38;9.93;79.10
76040;SHT30;64736;50.462;4.850;2023-03-21T04:20:05;9.93;78.92
76040;SHT30;64736;50.462;4.850;2023-03-21T04:22:32;10.04;77.94
76040;SHT30;64736;50.462;4.850;2023-03-21T04:24:59;10.09;77.33
76040;SHT30;64736;50.462;4.850;2023-03-21T04:27:30;10.08;77.71
76040;SHT30;64736;50.462;4.850;2023-03-21T04:29:58;10.11;77.66
76040;SHT30;64736;50.462;4.850;2023-03-21T04:32:26;10.08;77.64
76040;SHT30;64736;50.462;4.850;2023-03-21T04:34:52;10.14;77.09
76040;SHT30;64736;50.462;4.850;2023-03-21T04:37:21;10.09;76.89
76040;SHT30;64736;50.462;4.850;2023-03-21T04:39:48;10.02;76.95
76040;SHT30;64736;50.462;4.850;2023-03-21T04:42:15;10.02;76.66
76040;SHT30;64736;50.462;4.850;2023-03-21T04:44:44;9.93;76.40
76040;SHT30;64736;50.462;4.850;2023-03-21T04:47:10;9.99;76.26
76040;SHT30;64736;50.462;4.850;2023-03-21T04:49:38;10.04;76.32
76040;SHT30;64736;50.462;4.850;2023-03-21T04:52:04;9.97;76.12
76040;SHT30;64736;50.462;4.850;2023-03-21T04:54:30;10.09;75.67
76040;SHT30;64736;50.462;4.850;2023-03-21T04:56:57;10.11;75.97
76040;SHT30;64736;50.462;4.850;2023-03-21T04:59:23;10.06;75.73
76040;SHT30;64736;50.462;4.850;2023-03-21T05:01:49;10.01;75.95
76040;SHT30;64736;50.462;4.850;2023-03-21T05:04:15;10.05;76.18
76040;SHT30;64736;50.462;4.850;2023-03-21T05:06:42;10.09;75.45
76040;SHT30;64736;50.462;4.850;2023-03-21T05:09:08;10.05;75.59
76040;SHT30;64736;50.462;4.850;2023-03-21T05:11:36;10.11;75.24
76040;SHT30;64736;50.462;4.850;2023-03-21T05:14:04;10.11;74.94
76040;SHT30;64736;50.462;4.850;2023-03-21T05:16:29;10.08;75.04
76040;SHT30;64736;50.462;4.850;2023-03-21T05:18:59;10.02;75.24
76040;SHT30;64736;50.462;4.850;2023-03-21T05:21:30;10.04;74.70
76040;SHT30;64736;50.462;4.850;2023-03-21T05:23:59;10.04;75.26
76040;SHT30;64736;50.462;4.850;2023-03-21T05:26:28;10.06;75.12
76040;SHT30;64736;50.462;4.850;2023-03-21T05:28:54;10.02;75.36
76040;SHT30;64736;50.462;4.850;2023-03-21T05:31:20;9.99;75.93
76040;SHT30;64736;50.462;4.850;2023-03-21T05:33:47;9.95;75.17
76040;SHT30;64736;50.462;4.850;2023-03-21T05:36:14;10.01;74.92
76040;SHT30;64736;50.462;4.850;2023-03-21T05:38:40;9.93;75.23
76040;SHT30;64736;50.462;4.850;2023-03-21T05:41:13;9.99;73.92
76040;SHT30;64736;50.462;4.850;2023-03-21T05:43:39;9.97;74.34
76040;SHT30;64736;50.462;4.850;2023-03-21T05:46:06;9.98;74.22
76040;SHT30;64736;50.462;4.850;2023-03-21T05:48:31;10.04;73.95
76040;SHT30;64736;50.462;4.850;2023-03-21T05:50:57;10.05;73.68
76040;SHT30;64736;50.462;4.850;2023-03-21T05:53:23;10.01;73.88
76040;SHT30;64736;50.462;4.850;2023-03-21T05:55:48;10.05;73.12
76040;SHT30;64736;50.462;4.850;2023-03-21T05:58:14;10.02;73.18
76040;SHT30;64736;50.462;4.850;2023-03-21T06:00:40;10.11;73.53
76040;SHT30;64736;50.462;4.850;2023-03-21T06:03:06;10.11;72.95
76040;SHT30;64736;50.462;4.850;2023-03-21T06:05:31;10.14;72.95
76040;SHT30;64736;50.462;4.850;2023-03-21T06:07:57;10.14;72.98
76040;SHT30;64736;50.462;4.850;2023-03-21T06:10:23;10.15;72.66
76040;SHT30;64736;50.462;4.850;2023-03-21T06:12:48;10.15;73.14
76040;SHT30;64736;50.462;4.850;2023-03-21T06:15:14;10.06;73.68
76040;SHT30;64736;50.462;4.850;2023-03-21T06:17:41;10.06;73.91
76040;SHT30;64736;50.462;4.850;2023-03-21T06:20:10;9.99;77.06
76040;SHT30;64736;50.462;4.850;2023-03-21T06:22:36;9.91;77.60
76040;SHT30;64736;50.462;4.850;2023-03-21T06:25:03;9.85;78.64
76040;SHT30;64736;50.462;4.850;2023-03-21T06:27:30;9.66;82.38
76040;SHT30;64736;50.462;4.850;2023-03-21T06:29:55;9.42;85.02
76040;SHT30;64736;50.462;4.850;2023-03-21T06:32:25;9.12;86.88
76040;SHT30;64736;50.462;4.850;2023-03-21T06:34:51;8.92;88.31
76040;SHT30;64736;50.462;4.850;2023-03-21T06:37:17;8.78;89.00
76040;SHT30;64736;50.462;4.850;2023-03-21T06:39:43;8.81;89.88
76040;SHT30;64736;50.462;4.850;2023-03-21T06:42:09;8.87;90.25
76040;SHT30;64736;50.462;4.850;2023-03-21T06:44:35;8.77;90.47
76040;SHT30;64736;50.462;4.850;2023-03-21T06:47:01;8.75;90.79
76040;SHT30;64736;50.462;4.850;2023-03-21T06:49:27;8.46;90.75
76040;SHT30;64736;50.462;4.850;2023-03-21T06:51:53;8.65;90.86
76040;SHT30;64736;50.462;4.850;2023-03-21T06:54:19;8.80;91.14
76040;SHT30;64736;50.462;4.850;2023-03-21T06:56:45;8.78;91.20
76040;SHT30;64736;50.462;4.850;2023-03-21T06:59:11;8.71;91.18
76040;SHT30;64736;50.462;4.850;2023-03-21T07:01:37;8.65;91.14
76040;SHT30;64736;50.462;4.850;2023-03-21T07:04:03;8.75;91.02
76040;SHT30;64736;50.462;4.850;2023-03-21T07:06:31;8.68;90.68
76040;SHT30;64736;50.462;4.850;2023-03-21T07:08:57;8.59;90.59
76040;SHT30;64736;50.462;4.850;2023-03-21T07:11:23;8.70;90.57
76040;SHT30;64736;50.462;4.850;2023-03-21T07:13:49;8.77;90.84
76040;SHT30;64736;50.462;4.850;2023-03-21T07:16:16;8.75;90.39
76040;SHT30;64736;50.462;4.850;2023-03-21T07:18:42;8.78;90.13
76040;SHT30;64736;50.462;4.850;2023-03-21T07:21:08;8.63;89.99
76040;SHT30;64736;50.462;4.850;2023-03-21T07:23:34;8.95;89.96
76040;SHT30;64736;50.462;4.850;2023-03-21T07:26:00;8.84;89.38
76040;SHT30;64736;50.462;4.850;2023-03-21T07:28:26;9.14;89.75
76040;SHT30;64736;50.462;4.850;2023-03-21T07:30:57;9.04;89.61
76040;SHT30;64736;50.462;4.850;2023-03-21T07:33:24;9.16;88.77
76040;SHT30;64736;50.462;4.850;2023-03-21T07:35:53;9.18;88.77
76040;SHT30;64736;50.462;4.850;2023-03-21T07:38:20;9.07;88.00
76040;SHT30;64736;50.462;4.850;2023-03-21T07:40:46;9.20;87.92
76040;SHT30;64736;50.462;4.850;2023-03-21T07:43:13;9.18;87.04
76040;SHT30;64736;50.462;4.850;2023-03-21T07:45:39;9.46;87.85
76040;SHT30;64736;50.462;4.850;2023-03-21T07:48:07;9.32;86.81
76040;SHT30;64736;50.462;4.850;2023-03-21T07:50:33;9.51;87.00
76040;SHT30;64736;50.462;4.850;2023-03-21T07:52:59;9.57;86.98
76040;SHT30;64736;50.462;4.850;2023-03-21T07:55:25;9.40;85.43
76040;SHT30;64736;50.462;4.850;2023-03-21T07:57:52;9.56;85.77
76040;SHT30;64736;50.462;4.850;2023-03-21T08:00:19;9.63;86.25
76040;SHT30;64736;50.462;4.850;2023-03-21T08:02:54;9.57;85.21
76040;SHT30;64736;50.462;4.850;2023-03-21T08:05:21;9.61;85.40
76040;SHT30;64736;50.462;4.850;2023-03-21T08:07:47;9.61;84.00
76040;SHT30;64736;50.462;4.850;2023-03-21T08:10:13;9.69;83.47
76040;SHT30;64736;50.462;4.850;2023-03-21T08:12:40;9.73;82.69
76040;SHT30;64736;50.462;4.850;2023-03-21T08:15:06;9.84;82.27
76040;SHT30;64736;50.462;4.850;2023-03-21T08:17:32;9.88;82.51
76040;SHT30;64736;50.462;4.850;2023-03-21T08:20:00;9.99;81.81
76040;SHT30;64736;50.462;4.850;2023-03-21T08:22:26;10.05;81.36
76040;SHT30;64736;50.462;4.850;2023-03-21T08:24:52;10.09;80.83
76040;SHT30;64736;50.462;4.850;2023-03-21T08:27:18;10.19;81.00
76040;SHT30;64736;50.462;4.850;2023-03-21T08:29:45;10.23;80.50
76040;SHT30;64736;50.462;4.850;2023-03-21T08:32:10;10.35;80.36
76040;SHT30;64736;50.462;4.850;2023-03-21T08:34:36;10.38;79.87
76040;SHT30;64736;50.462;4.850;2023-03-21T08:37:02;10.42;79.92
76040;SHT30;64736;50.462;4.850;2023-03-21T08:39:28;10.42;79.12
76040;SHT30;64736;50.462;4.850;2023-03-21T08:41:54;10.42;78.37
76040;SHT30;64736;50.462;4.850;2023-03-21T08:44:19;10.52;79.26
76040;SHT30;64736;50.462;4.850;2023-03-21T08:46:46;10.36;76.64
76040;SHT30;64736;50.462;4.850;2023-03-21T08:49:12;10.45;78.66
76040;SHT30;64736;50.462;4.850;2023-03-21T08:51:38;10.43;77.47
76040;SHT30;64736;50.462;4.850;2023-03-21T08:54:05;10.42;77.37
76040;SHT30;64736;50.462;4.850;2023-03-21T08:56:31;10.35;76.68
76040;SHT30;64736;50.462;4.850;2023-03-21T08:58:57;10.45;77.78
76040;SHT30;64736;50.462;4.850;2023-03-21T09:01:23;10.43;76.98
76040;SHT30;64736;50.462;4.850;2023-03-21T09:03:50;10.48;77.15
76040;SHT30;64736;50.462;4.850;2023-03-21T09:06:16;10.56;76.46
76040;SHT30;64736;50.462;4.850;2023-03-21T09:08:41;10.56;75.49
76040;SHT30;64736;50.462;4.850;2023-03-21T09:11:08;10.69;76.85
76040;SHT30;64736;50.462;4.850;2023-03-21T09:13:34;10.63;75.38
76040;SHT30;64736;50.462;4.850;2023-03-21T09:16:00;10.66;75.45
76040;SHT30;64736;50.462;4.850;2023-03-21T09:18:27;10.69;74.45
76040;SHT30;64736;50.462;4.850;2023-03-21T09:21:10;10.79;75.84
76040;SHT30;64736;50.462;4.850;2023-03-21T09:23:38;10.79;73.95
76040;SHT30;64736;50.462;4.850;2023-03-21T09:26:05;10.77;74.04
76040;SHT30;64736;50.462;4.850;2023-03-21T09:28:32;10.80;75.84
76040;SHT30;64736;50.462;4.850;2023-03-21T09:30:58;10.60;76.14
76040;SHT30;64736;50.462;4.850;2023-03-21T09:33:25;10.93;77.50
76040;SHT30;64736;50.462;4.850;2023-03-21T09:35:54;10.77;75.13
76040;SHT30;64736;50.462;4.850;2023-03-21T09:38:20;10.50;72.84
76040;SHT30;64736;50.462;4.850;2023-03-21T09:41:03;10.74;75.58
76040;SHT30;64736;50.462;4.850;2023-03-21T09:43:42;10.84;75.83
76040;SHT30;64736;50.462;4.850;2023-03-21T09:46:39;10.69;75.86
76040;SHT30;64736;50.462;4.850;2023-03-21T09:49:43;10.56;75.91
76040;SHT30;64736;50.462;4.850;2023-03-21T09:53:00;10.96;76.19
76040;SHT30;64736;50.462;4.850;2023-03-21T09:55:16;10.94;76.18
76040;SHT30;64736;50.462;4.850;2023-03-21T09:57:44;10.91;78.03
76040;SHT30;64736;50.462;4.850;2023-03-21T10:00:29;10.81;81.33
76040;SHT30;64736;50.462;4.850;2023-03-21T10:03:04;10.96;80.89
76040;SHT30;64736;50.462;4.850;2023-03-21T10:05:37;11.21;80.76
76040;SHT30;64736;50.462;4.850;2023-03-21T10:08:19;11.40;78.56
76040;SHT30;64736;50.462;4.850;2023-03-21T10:10:54;11.55;77.00
76040;SHT30;64736;50.462;4.850;2023-03-21T10:13:31;11.62;75.99
76040;SHT30;64736;50.462;4.850;2023-03-21T10:16:01;11.83;75.50
76040;SHT30;64736;50.462;4.850;2023-03-21T10:18:30;12.13;74.21
76040;SHT30;64736;50.462;4.850;2023-03-21T10:20:56;12.04;71.80
76040;SHT30;64736;50.462;4.850;2023-03-21T10:23:26;12.14;70.00
76040;SHT30;64736;50.462;4.850;2023-03-21T10:26:05;12.31;68.87
76040;SHT30;64736;50.462;4.850;2023-03-21T10:28:34;12.16;66.52
76040;SHT30;64736;50.462;4.850;2023-03-21T10:31:05;12.51;67.04
76040;SHT30;64736;50.462;4.850;2023-03-21T10:33:35;12.44;65.35
76040;SHT30;64736;50.462;4.850;2023-03-21T10:36:08;12.65;65.09
76040;SHT30;64736;50.462;4.850;2023-03-21T10:38:40;12.63;64.45
76040;SHT30;64736;50.462;4.850;2023-03-21T10:41:10;12.68;63.94
76040;SHT30;64736;50.462;4.850;2023-03-21T10:43:37;12.79;65.08
76040;SHT30;64736;50.462;4.850;2023-03-21T10:46:15;12.81;65.23
76040;SHT30;64736;50.462;4.850;2023-03-21T10:48:43;12.92;63.54
76040;SHT30;64736;50.462;4.850;2023-03-21T10:51:26;12.95;62.71
76040;SHT30;64736;50.462;4.850;2023-03-21T10:53:58;12.97;61.21
76040;SHT30;64736;50.462;4.850;2023-03-21T10:56:27;12.95;60.78
76040;SHT30;64736;50.462;4.850;2023-03-21T10:58:56;13.00;60.77
76040;SHT30;64736;50.462;4.850;2023-03-21T11:01:47;13.11;60.43
76040;SHT30;64736;50.462;4.850;2023-03-21T11:04:19;13.31;61.70
76040;SHT30;64736;50.462;4.850;2023-03-21T11:07:03;13.50;59.89
76040;SHT30;64736;50.462;4.850;2023-03-21T11:10:11;13.33;61.00
76040;SHT30;64736;50.462;4.850;2023-03-21T11:12:39;13.38;62.25
76040;SHT30;64736;50.462;4.850;2023-03-21T11:17:55;13.55;60.03
76040;SHT30;64736;50.462;4.850;2023-03-21T11:20:21;13.50;59.49
76040;SHT30;64736;50.462;4.850;2023-03-21T11:22:48;13.71;59.77
76040;SHT30;64736;50.462;4.850;2023-03-21T11:25:35;13.64;59.59
76040;SHT30;64736;50.462;4.850;2023-03-21T11:28:11;13.46;59.91
76040;SHT30;64736;50.462;4.850;2023-03-21T11:30:54;13.55;60.90
76040;SHT30;64736;50.462;4.850;2023-03-21T11:33:35;13.62;60.24
76040;SHT30;64736;50.462;4.850;2023-03-21T11:38:48;14.96;54.94
76040;SHT30;64736;50.462;4.850;2023-03-21T11:41:29;15.64;53.78
76040;SHT30;64736;50.462;4.850;2023-03-21T11:43:56;17.04;51.78
76040;SHT30;64736;50.462;4.850;2023-03-21T11:46:24;17.87;48.64
76040;SHT30;64736;50.462;4.850;2023-03-21T11:48:50;17.66;49.39
76040;SHT30;64736;50.462;4.850;2023-03-21T11:54:56;16.73;50.20
76040;SHT30;64736;50.462;4.850;2023-03-21T12:05:38;17.78;49.26
76040;SHT30;64736;50.462;4.850;2023-03-21T12:08:40;18.27;47.37
76040;SHT30;64736;50.462;4.850;2023-03-21T12:16:50;17.59;48.02
76040;SHT30;64736;50.462;4.850;2023-03-21T12:22:14;18.95;45.52
76040;SHT30;64736;50.462;4.850;2023-03-21T12:24:56;18.28;46.74
76040;SHT30;64736;50.462;4.850;2023-03-21T12:32:53;17.49;48.80
76040;SHT30;64736;50.462;4.850;2023-03-21T12:35:35;17.73;49.05
76040;SHT30;64736;50.462;4.850;2023-03-21T12:39:03;17.52;48.45
76040;SHT30;64736;50.462;4.850;2023-03-21T12:41:32;17.08;48.99
76040;SHT30;64736;50.462;4.850;2023-03-21T12:44:16;17.02;49.62
76040;SHT30;64736;50.462;4.850;2023-03-21T12:47:08;16.73;51.17
76040;SHT30;64736;50.462;4.850;2023-03-21T12:49:46;17.21;50.84
76040;SHT30;64736;50.462;4.850;2023-03-21T12:52:24;17.22;49.52
76040;SHT30;64736;50.462;4.850;2023-03-21T12:55:20;16.91;50.81
76040;SHT30;64736;50.462;4.850;2023-03-21T12:57:49;18.85;46.37
76040;SHT30;64736;50.462;4.850;2023-03-21T13:00:22;18.40;48.31
76040;SHT30;64736;50.462;4.850;2023-03-21T13:06:13;17.82;48.44
76040;SHT30;64736;50.462;4.850;2023-03-21T13:08:34;17.38;49.16
76040;SHT30;64736;50.462;4.850;2023-03-21T13:11:03;17.13;50.51
76040;SHT30;64736;50.462;4.850;2023-03-21T13:13:36;17.61;49.20
76040;SHT30;64736;50.462;4.850;2023-03-21T13:19:15;17.00;49.74
76040;SHT30;64736;50.462;4.850;2023-03-21T13:22:10;16.14;52.58
76040;SHT30;64736;50.462;4.850;2023-03-21T13:24:49;17.30;49.25
76040;SHT30;64736;50.462;4.850;2023-03-21T13:30:00;18.27;48.12
76040;SHT30;64736;50.462;4.850;2023-03-21T13:32:40;19.22;46.28
76040;SHT30;64736;50.462;4.850;2023-03-21T13:35:31;20.28;43.69
76040;SHT30;64736;50.462;4.850;2023-03-21T13:38:03;20.37;43.89
76040;SHT30;64736;50.462;4.850;2023-03-21T13:40:43;20.68;42.07
76040;SHT30;64736;50.462;4.850;2023-03-21T13:45:54;19.99;44.20
76040;SHT30;64736;50.462;4.850;2023-03-21T13:48:28;21.59;40.96
76040;SHT30;64736;50.462;4.850;2023-03-21T13:51:02;21.09;41.09
76040;SHT30;64736;50.462;4.850;2023-03-21T13:53:41;20.53;42.31
76040;SHT30;64736;50.462;4.850;2023-03-21T13:56:23;20.84;41.29
76040;SHT30;64736;50.462;4.850;2023-03-21T13:58:56;20.70;42.32
76040;SHT30;64736;50.462;4.850;2023-03-21T14:09:23;18.75;46.43
76040;SHT30;64736;50.462;4.850;2023-03-21T14:11:51;18.55;46.78
76040;SHT30;64736;50.462;4.850;2023-03-21T14:14:28;18.88;46.37
76040;SHT30;64736;50.462;4.850;2023-03-21T14:16:56;18.62;47.24
76040;SHT30;64736;50.462;4.850;2023-03-21T14:19:31;18.17;48.41
76040;SHT30;64736;50.462;4.850;2023-03-21T14:21:57;18.27;48.44
76040;SHT30;64736;50.462;4.850;2023-03-21T14:24:23;18.64;47.77
76040;SHT30;64736;50.462;4.850;2023-03-21T14:26:52;18.57;48.10
76040;SHT30;64736;50.462;4.850;2023-03-21T14:29:22;18.03;48.81
76040;SHT30;64736;50.462;4.850;2023-03-21T14:31:50;17.24;50.93
76040;SHT30;64736;50.462;4.850;2023-03-21T14:34:16;17.27;50.57
76040;SHT30;64736;50.462;4.850;2023-03-21T14:36:43;16.99;51.80
76040;SHT30;64736;50.462;4.850;2023-03-21T14:39:32;16.97;52.13
76040;SHT30;64736;50.462;4.850;2023-03-21T14:42:11;17.25;51.77
76040;SHT30;64736;50.462;4.850;2023-03-21T14:44:42;17.28;51.73
76040;SHT30;64736;50.462;4.850;2023-03-21T14:47:29;17.38;52.15
76040;SHT30;64736;50.462;4.850;2023-03-21T14:49:57;17.42;51.84
76040;SHT30;64736;50.462;4.850;2023-03-21T14:52:34;17.21;51.78
76040;SHT30;64736;50.462;4.850;2023-03-21T14:55:01;17.21;52.22
76040;SHT30;64736;50.462;4.850;2023-03-21T14:57:31;17.32;52.20
76040;SHT30;64736;50.462;4.850;2023-03-21T15:00:05;17.30;52.17
76040;SHT30;64736;50.462;4.850;2023-03-21T15:02:38;17.75;51.67
76040;SHT30;64736;50.462;4.850;2023-03-21T15:05:23;18.31;50.70
76040;SHT30;64736;50.462;4.850;2023-03-21T15:07:57;18.16;51.23
76040;SHT30;64736;50.462;4.850;2023-03-21T15:10:24;17.70;51.77
76040;SHT30;64736;50.462;4.850;2023-03-21T15:12:54;17.69;52.47
76040;SHT30;64736;50.462;4.850;2023-03-21T15:15:21;17.11;53.39
76040;SHT30;64736;50.462;4.850;2023-03-21T15:17:49;16.35;54.80
76040;SHT30;64736;50.462;4.850;2023-03-21T15:20:18;16.63;54.61
76040;SHT30;64736;50.462;4.850;2023-03-21T15:22:49;17.02;53.90
76040;SHT30;64736;50.462;4.850;2023-03-21T15:25:21;16.76;54.61
76040;SHT30;64736;50.462;4.850;2023-03-21T15:27:49;16.51;55.18
76040;SHT30;64736;50.462;4.850;2023-03-21T15:32:46;16.18;55.96
76040;SHT30;64736;50.462;4.850;2023-03-21T15:35:19;16.12;56.64
76040;SHT30;64736;50.462;4.850;2023-03-21T15:37:53;16.26;56.25
76040;SHT30;64736;50.462;4.850;2023-03-21T15:40:29;17.53;52.87
76040;SHT30;64736;50.462;4.850;2023-03-21T15:43:14;17.17;54.23
76040;SHT30;64736;50.462;4.850;2023-03-21T15:45:48;16.86;54.95
76040;SHT30;64736;50.462;4.850;2023-03-21T15:48:14;16.70;55.57
76040;SHT30;64736;50.462;4.850;2023-03-21T15:51:02;16.32;56.55
76040;SHT30;64736;50.462;4.850;2023-03-21T15:53:32;16.28;56.80
76040;SHT30;64736;50.462;4.850;2023-03-21T15:55:59;16.08;57.18
76040;SHT30;64736;50.462;4.850;2023-03-21T15:58:35;15.96;57.64
76040;SHT30;64736;50.462;4.850;2023-03-21T16:01:20;15.91;57.91
76040;SHT30;64736;50.462;4.850;2023-03-21T16:03:57;15.74;58.38
76040;SHT30;64736;50.462;4.850;2023-03-21T16:06:33;15.64;58.99
76040;SHT30;64736;50.462;4.850;2023-03-21T16:09:09;15.49;59.19
76040;SHT30;64736;50.462;4.850;2023-03-21T16:11:41;15.50;59.27
76040;SHT30;64736;50.462;4.850;2023-03-21T16:14:09;15.54;59.69
76040;SHT30;64736;50.462;4.850;2023-03-21T16:16:35;15.59;58.96
76040;SHT30;64736;50.462;4.850;2023-03-21T16:19:02;15.29;59.69
76040;SHT30;64736;50.462;4.850;2023-03-21T16:21:30;15.43;59.71
76040;SHT30;64736;50.462;4.850;2023-03-21T16:23:56;15.42;59.84
76040;SHT30;64736;50.462;4.850;2023-03-21T16:26:25;15.25;60.16
76040;SHT30;64736;50.462;4.850;2023-03-21T16:28:51;15.15;60.48
76040;SHT30;64736;50.462;4.850;2023-03-21T16:31:20;15.08;60.67
76040;SHT30;64736;50.462;4.850;2023-03-21T16:33:46;14.99;60.78
76040;SHT30;64736;50.462;4.850;2023-03-21T16:36:15;14.99;60.54
76040;SHT30;64736;50.462;4.850;2023-03-21T16:38:46;14.88;61.11
76040;SHT30;64736;50.462;4.850;2023-03-21T16:41:15;14.89;61.27
76040;SHT30;64736;50.462;4.850;2023-03-21T16:43:42;14.84;61.60
76040;SHT30;64736;50.462;4.850;2023-03-21T16:46:12;14.82;61.91
76040;SHT30;64736;50.462;4.850;2023-03-21T16:48:38;14.84;62.12
76040;SHT30;64736;50.462;4.850;2023-03-21T16:51:04;14.77;62.12
76040;SHT30;64736;50.462;4.850;2023-03-21T16:53:30;14.60;62.97
76040;SHT30;64736;50.462;4.850;2023-03-21T16:55:56;14.61;62.90
76040;SHT30;64736;50.462;4.850;2023-03-21T16:58:28;14.64;63.28
76040;SHT30;64736;50.462;4.850;2023-03-21T17:00:53;14.57;63.35
76040;SHT30;64736;50.462;4.850;2023-03-21T17:03:19;14.56;64.23
76040;SHT30;64736;50.462;4.850;2023-03-21T17:05:46;14.51;67.53
76040;SHT30;64736;50.462;4.850;2023-03-21T17:08:18;14.23;67.99
76040;SHT30;64736;50.462;4.850;2023-03-21T17:10:44;14.22;66.69
76040;SHT30;64736;50.462;4.850;2023-03-21T17:13:10;14.23;66.88
76040;SHT30;64736;50.462;4.850;2023-03-21T17:15:36;14.23;66.87
76040;SHT30;64736;50.462;4.850;2023-03-21T17:18:03;14.20;66.76
76040;SHT30;64736;50.462;4.850;2023-03-21T17:20:33;14.34;66.32
76040;SHT30;64736;50.462;4.850;2023-03-21T17:23:00;14.33;66.32
76040;SHT30;64736;50.462;4.850;2023-03-21T17:25:26;14.30;66.44
76040;SHT30;64736;50.462;4.850;2023-03-21T17:27:52;14.29;66.67
76040;SHT30;64736;50.462;4.850;2023-03-21T17:30:32;14.26;66.95
76040;SHT30;64736;50.462;4.850;2023-03-21T17:32:58;14.17;66.98